sensor_id;sensor_type;location;lat;lon;timestamp;pressure;altitude;pressure_sealevel;temperature;humidity
72285;BME280;60220;53.552;10.092;2023-12-14T00:01:47;100688.09;;;5.14;100.00
72285;BME280;60220;53.552;10.092;2023-12-14T00:04:14;100690.72;;;5.13;100.00
72285;BME280;60220;53.552;10.092;2023-12-14T00:06:42;100692.22;;;4.90;100.00
72285;BME280;60220;53.552;10.092;2023-12-14T00:09:08;100700.53;;;5.50;100.00
72285;BME280;60220;53.552;10.092;2023-12-14T00:11:37;100705.84;;;5.69;100.00
72285;BME280;60220;53.552;10.092;2023-12-14T00:14:04;100707.81;;;6.04;100.00
72285;BME280;60220;53.552;10.092;2023-12-14T00:16:30;100707.59;;;5.71;100.00
72285;BME280;60220;53.552;10.092;2023-12-14T00:18:58;100719.91;;;5.95;100.00
72285;BME280;60220;53.552;10.092;2023-12-14T00:21:24;100717.28;;;5.90;100.00
72285;BME280;60220;53.552;10.092;2023-12-14T00:23:52;100721.50;;;5.75;100.00
72285;BME280;60220;53.552;10.092;2023-12-14T00:26:19;100724.00;;;5.56;100.00
72285;BME280;60220;53.552;10.092;2023-12-14T00:28:48;100737.03;;;5.59;100.00
72285;BME280;60220;53.552;10.092;2023-12-14T00:31:17;100729.94;;;5.40;100.00
72285;BME280;60220;53.552;10.092;2023-12-14T00:33:44;100737.88;;;5.55;100.00
72285;BME280;60220;53.552;10.092;2023-12-14T00:36:17;100742.13;;;5.44;100.00
72285;BME280;60220;53.552;10.092;2023-12-14T00:38:44;100747.38;;;5.47;100.00
72285;BME280;60220;53.552;10.092;2023-12-14T00:41:13;100752.81;;;5.81;100.00
72285;BME280;60220;53.552;10.092;2023-12-14T00:43:39;100752.75;;;5.72;100.00
72285;BME280;60220;53.552;10.092;2023-12-14T00:46:08;100757.84;;;5.56;100.00
72285;BME280;60220;53.552;10.092;2023-12-14T00:48:38;100766.72;;;5.83;100.00
72285;BME280;60220;53.552;10.092;2023-12-14T00:51:05;100772.00;;;5.90;100.00
72285;BME280;60220;53.552;10.092;2023-12-14T00:53:34;100778.94;;;5.87;100.00
72285;BME280;60220;53.552;10.092;2023-12-14T00:56:01;100788.31;;;5.67;100.00
72285;BME280;60220;53.552;10.092;2023-12-14T00:58:29;100782.44;;;5.98;100.00
72285;BME280;60220;53.552;10.092;2023-12-14T01:00:55;100779.81;;;5.90;100.00
72285;BME280;60220;53.552;10.092;2023-12-14T01:03:22;100792.72;;;5.77;100.00
72285;BME280;60220;53.552;10.092;2023-12-14T01:05:51;100787.78;;;6.16;100.00
72285;BME280;60220;53.552;10.092;2023-12-14T01:08:18;100796.31;;;5.94;100.00
72285;BME280;60220;53.552;10.092;2023-12-14T01:10:44;100795.47;;;5.98;100.00
72285;BME280;60220;53.552;10.092;2023-12-14T01:13:11;100798.09;;;5.96;100.00
72285;BME280;60220;53.552;10.092;2023-12-14T01:15:39;100795.72;;;6.39;100.00
72285;BME280;60220;53.552;10.092;2023-12-14T01:18:09;100801.84;;;6.50;100.00
72285;BME280;60220;53.552;10.092;2023-12-14T01:20:36;100807.09;;;6.52;100.00
72285;BME280;60220;53.552;10.092;2023-12-14T01:23:03;100808.72;;;6.31;100.00
72285;BME280;60220;53.552;10.092;2023-12-14T01:25:32;100817.69;;;6.97;100.00
72285;BME280;60220;53.552;10.092;2023-12-14T01:27:59;100826.28;;;6.66;100.00
72285;BME280;60220;53.552;10.092;2023-12-14T01:30:28;100829.75;;;6.62;100.00
72285;BME280;60220;53.552;10.092;2023-12-14T01:32:56;100829.66;;;6.49;100.00
72285;BME280;60220;53.552;10.092;2023-12-14T01:35:23;100829.75;;;6.68;100.00
72285;BME280;60220;53.552;10.092;2023-12-14T01:37:50;100828.63;;;6.19;100.00
72285;BME280;60220;53.552;10.092;2023-12-14T01:40:18;100836.13;;;5.79;100.00
72285;BME280;60220;53.552;10.092;2023-12-14T01:42:46;100832.84;;;6.00;100.00
72285;BME280;60220;53.552;10.092;2023-12-14T01:45:12;100840.38;;;5.65;100.00
72285;BME280;60220;53.552;10.092;2023-12-14T01:47:42;100847.78;;;6.28;100.00
72285;BME280;60220;53.552;10.092;2023-12-14T01:50:10;100847.81;;;6.33;100.00
72285;BME280;60220;53.552;10.092;2023-12-14T01:52:36;100850.34;;;6.19;100.00
72285;BME280;60220;53.552;10.092;2023-12-14T01:55:04;100851.88;;;5.90;100.00
72285;BME280;60220;53.552;10.092;2023-12-14T01:57:31;100861.34;;;5.82;100.00
72285;BME280;60220;53.552;10.092;2023-12-14T02:00:00;100863.03;;;5.78;100.00
72285;BME280;60220;53.552;10.092;2023-12-14T02:02:27;100854.47;;;5.87;100.00
72285;BME280;60220;53.552;10.092;2023-12-14T02:04:54;100867.81;;;6.32;100.00
72285;BME280;60220;53.552;10.092;2023-12-14T02:07:22;100863.19;;;5.93;100.00
72285;BME280;60220;53.552;10.092;2023-12-14T02:09:51;100865.66;;;5.77;100.00
72285;BME280;60220;53.552;10.092;2023-12-14T02:12:17;100870.09;;;5.01;100.00
72285;BME280;60220;53.552;10.092;2023-12-14T02:14:44;100869.31;;;5.97;100.00
72285;BME280;60220;53.552;10.092;2023-12-14T02:17:10;100855.88;;;5.51;100.00
72285;BME280;60220;53.552;10.092;2023-12-14T02:19:37;100868.41;;;5.95;100.00
72285;BME280;60220;53.552;10.092;2023-12-14T02:22:04;100872.84;;;6.08;100.00
72285;BME280;60220;53.552;10.092;2023-12-14T02:24:32;100872.72;;;5.87;100.00
72285;BME280;60220;53.552;10.092;2023-12-14T02:26:59;100877.41;;;6.36;100.00
72285;BME280;60220;53.552;10.092;2023-12-14T02:29:26;100885.31;;;6.55;100.00
72285;BME280;60220;53.552;10.092;2023-12-14T02:31:53;100880.63;;;5.97;100.00
72285;BME280;60220;53.552;10.092;2023-12-14T02:34:19;100883.63;;;6.57;100.00
72285;BME280;60220;53.552;10.092;2023-12-14T02:36:48;100888.78;;;6.47;100.00
72285;BME280;60220;53.552;10.092;2023-12-14T02:39:15;100884.13;;;6.02;100.00
72285;BME280;60220;53.552;10.092;2023-12-14T02:41:45;100888.53;;;6.11;100.00
72285;BME280;60220;53.552;10.092;2023-12-14T02:44:12;100895.44;;;6.09;100.00
72285;BME280;60220;53.552;10.092;2023-12-14T02:46:38;100894.31;;;5.77;100.00
72285;BME280;60220;53.552;10.092;2023-12-14T02:49:05;100898.25;;;6.32;100.00
72285;BME280;60220;53.552;10.092;2023-12-14T02:51:34;100903.97;;;5.90;100.00
72285;BME280;60220;53.552;10.092;2023-12-14T02:54:01;100902.47;;;5.26;100.00
72285;BME280;60220;53.552;10.092;2023-12-14T02:56:27;100911.13;;;6.15;100.00
72285;BME280;60220;53.552;10.092;2023-12-14T02:58:55;100900.28;;;5.67;100.00
72285;BME280;60220;53.552;10.092;2023-12-14T03:01:22;100905.69;;;5.88;100.00
72285;BME280;60220;53.552;10.092;2023-12-14T03:03:48;100905.88;;;6.09;100.00
72285;BME280;60220;53.552;10.092;2023-12-14T03:06:15;100909.19;;;5.87;100.00
72285;BME280;60220;53.552;10.092;2023-12-14T03:08:41;100910.34;;;6.28;100.00
72285;BME280;60220;53.552;10.092;2023-12-14T03:11:08;100922.44;;;6.16;100.00
72285;BME280;60220;53.552;10.092;2023-12-14T03:13:35;100924.63;;;5.72;100.00
72285;BME280;60220;53.552;10.092;2023-12-14T03:16:04;100923.22;;;6.04;100.00
72285;BME280;60220;53.552;10.092;2023-12-14T03:18:30;100925.91;;;6.16;100.00
72285;BME280;60220;53.552;10.092;2023-12-14T03:20:57;100935.56;;;6.29;100.00
72285;BME280;60220;53.552;10.092;2023-12-14T03:23:24;100929.41;;;6.17;100.00
72285;BME280;60220;53.552;10.092;2023-12-14T03:25:53;100941.91;;;5.63;100.00
72285;BME280;60220;53.552;10.092;2023-12-14T03:28:19;100945.31;;;5.56;100.00
72285;BME280;60220;53.552;10.092;2023-12-14T03:30:46;100950.38;;;5.44;100.00
72285;BME280;60220;53.552;10.092;2023-12-14T03:33:15;100957.59;;;5.70;100.00
72285;BME280;60220;53.552;10.092;2023-12-14T03:35:41;100959.31;;;5.68;100.00
72285;BME280;60220;53.552;10.092;2023-12-14T03:38:09;100953.50;;;5.91;100.00
72285;BME280;60220;53.552;10.092;2023-12-14T03:40:35;100959.03;;;6.29;100.00
72285;BME280;60220;53.552;10.092;2023-12-14T03:43:04;100963.38;;;6.29;100.00
72285;BME280;60220;53.552;10.092;2023-12-14T03:45:31;100969.59;;;5.55;100.00
72285;BME280;60220;53.552;10.092;2023-12-14T03:47:57;100976.22;;;5.29;100.00
72285;BME280;60220;53.552;10.092;2023-12-14T03:50:25;100971.72;;;5.90;100.00
72285;BME280;60220;53.552;10.092;2023-12-14T03:52:53;100975.59;;;5.50;100.00
72285;BME280;60220;53.552;10.092;2023-12-14T03:55:20;100969.13;;;5.93;100.00
72285;BME280;60220;53.552;10.092;2023-12-14T03:57:46;100966.38;;;5.78;100.00
72285;BME280;60220;53.552;10.092;2023-12-14T04:00:16;100978.94;;;5.37;100.00
72285;BME280;60220;53.552;10.092;2023-12-14T04:02:45;100991.59;;;5.82;100.00
72285;BME280;60220;53.552;10.092;2023-12-14T04:05:12;100987.13;;;5.72;100.00
72285;BME280;60220;53.552;10.092;2023-12-14T04:07:40;100995.44;;;5.37;100.00
72285;BME280;60220;53.552;10.092;2023-12-14T04:10:07;100989.94;;;5.88;100.00
72285;BME280;60220;53.552;10.092;2023-12-14T04:12:34;100997.25;;;5.44;100.00
72285;BME280;60220;53.552;10.092;2023-12-14T04:15:04;101005.19;;;5.56;100.00
72285;BME280;60220;53.552;10.092;2023-12-14T04:17:32;100994.31;;;5.94;100.00
72285;BME280;60220;53.552;10.092;2023-12-14T04:19:59;100998.91;;;6.16;100.00
72285;BME280;60220;53.552;10.092;2023-12-14T04:22:26;100998.03;;;6.19;100.00
72285;BME280;60220;53.552;10.092;2023-12-14T04:24:56;101000.34;;;5.87;100.00
72285;BME280;60220;53.552;10.092;2023-12-14T04:27:22;101010.41;;;5.58;100.00
72285;BME280;60220;53.552;10.092;2023-12-14T04:29:55;101001.16;;;5.83;100.00
72285;BME280;60220;53.552;10.092;2023-12-14T04:32:22;101009.31;;;6.18;100.00
72285;BME280;60220;53.552;10.092;2023-12-14T04:34:49;101007.53;;;6.11;100.00
72285;BME280;60220;53.552;10.092;2023-12-14T04:37:18;101013.00;;;5.56;100.00
72285;BME280;60220;53.552;10.092;2023-12-14T04:39:44;101017.97;;;5.38;100.00
72285;BME280;60220;53.552;10.092;2023-12-14T04:42:12;101006.81;;;6.28;100.00
72285;BME280;60220;53.552;10.092;2023-12-14T04:44:41;101016.19;;;6.07;100.00
72285;BME280;60220;53.552;10.092;2023-12-14T04:47:10;101020.75;;;6.30;100.00
72285;BME280;60220;53.552;10.092;2023-12-14T04:49:37;101019.94;;;6.37;100.00
72285;BME280;60220;53.552;10.092;2023-12-14T04:52:06;101025.47;;;5.85;100.00
72285;BME280;60220;53.552;10.092;2023-12-14T04:54:33;101029.09;;;5.96;100.00
72285;BME280;60220;53.552;10.092;2023-12-14T04:57:04;101033.25;;;6.71;100.00
72285;BME280;60220;53.552;10.092;2023-12-14T04:59:32;101032.88;;;6.28;100.00
72285;BME280;60220;53.552;10.092;2023-12-14T05:01:59;101048.00;;;6.67;100.00
72285;BME280;60220;53.552;10.092;2023-12-14T05:04:30;101048.56;;;6.34;100.00
72285;BME280;60220;53.552;10.092;2023-12-14T05:06:57;101056.63;;;6.57;100.00
72285;BME280;60220;53.552;10.092;2023-12-14T05:09:23;101053.13;;;5.74;100.00
72285;BME280;60220;53.552;10.092;2023-12-14T05:11:50;101052.78;;;6.20;100.00
72285;BME280;60220;53.552;10.092;2023-12-14T05:14:18;101048.66;;;6.42;100.00
72285;BME280;60220;53.552;10.092;2023-12-14T05:16:46;101052.16;;;6.45;100.00
72285;BME280;60220;53.552;10.092;2023-12-14T05:19:12;101062.28;;;6.12;100.00
72285;BME280;60220;53.552;10.092;2023-12-14T05:21:39;101068.19;;;5.96;100.00
72285;BME280;60220;53.552;10.092;2023-12-14T05:24:06;101075.06;;;5.89;100.00
72285;BME280;60220;53.552;10.092;2023-12-14T05:26:33;101085.41;;;5.86;100.00
72285;BME280;60220;53.552;10.092;2023-12-14T05:28:59;101084.38;;;5.09;100.00
72285;BME280;60220;53.552;10.092;2023-12-14T05:31:26;101088.78;;;5.79;100.00
72285;BME280;60220;53.552;10.092;2023-12-14T05:33:54;101091.72;;;6.05;100.00
72285;BME280;60220;53.552;10.092;2023-12-14T05:36:21;101095.06;;;5.92;100.00
72285;BME280;60220;53.552;10.092;2023-12-14T05:38:49;101103.69;;;5.88;100.00
72285;BME280;60220;53.552;10.092;2023-12-14T05:41:18;101106.75;;;6.29;100.00
72285;BME280;60220;53.552;10.092;2023-12-14T05:43:45;101101.00;;;6.68;100.00
72285;BME280;60220;53.552;10.092;2023-12-14T05:46:20;101104.28;;;6.42;100.00
72285;BME280;60220;53.552;10.092;2023-12-14T05:48:47;101109.75;;;6.73;100.00
72285;BME280;60220;53.552;10.092;2023-12-14T05:51:27;101109.88;;;6.88;100.00
72285;BME280;60220;53.552;10.092;2023-12-14T05:53:53;101118.72;;;7.05;100.00
72285;BME280;60220;53.552;10.092;2023-12-14T05:56:20;101122.00;;;6.83;100.00
72285;BME280;60220;53.552;10.092;2023-12-14T05:58:47;101135.84;;;6.70;100.00
72285;BME280;60220;53.552;10.092;2023-12-14T06:01:16;101139.34;;;5.92;100.00
72285;BME280;60220;53.552;10.092;2023-12-14T06:03:43;101139.34;;;6.72;100.00
72285;BME280;60220;53.552;10.092;2023-12-14T06:06:09;101142.94;;;6.86;100.00
72285;BME280;60220;53.552;10.092;2023-12-14T06:08:38;101138.06;;;7.31;100.00
72285;BME280;60220;53.552;10.092;2023-12-14T06:11:05;101138.69;;;7.00;100.00
72285;BME280;60220;53.552;10.092;2023-12-14T06:13:32;101144.56;;;6.72;100.00
72285;BME280;60220;53.552;10.092;2023-12-14T06:15:59;101145.75;;;7.10;100.00
72285;BME280;60220;53.552;10.092;2023-12-14T06:18:26;101146.84;;;7.49;100.00
72285;BME280;60220;53.552;10.092;2023-12-14T06:20:52;101149.34;;;7.29;100.00
72285;BME280;60220;53.552;10.092;2023-12-14T06:23:19;101149.16;;;7.02;100.00
72285;BME280;60220;53.552;10.092;2023-12-14T06:25:47;101158.00;;;7.22;100.00
72285;BME280;60220;53.552;10.092;2023-12-14T06:28:14;101159.06;;;7.50;100.00
72285;BME280;60220;53.552;10.092;2023-12-14T06:30:40;101165.72;;;7.05;100.00
72285;BME280;60220;53.552;10.092;2023-12-14T06:33:07;101168.25;;;6.99;100.00
72285;BME280;60220;53.552;10.092;2023-12-14T06:35:34;101175.22;;;6.97;100.00
72285;BME280;60220;53.552;10.092;2023-12-14T06:38:00;101181.94;;;6.71;100.00
72285;BME280;60220;53.552;10.092;2023-12-14T06:40:27;101183.38;;;6.43;100.00
72285;BME280;60220;53.552;10.092;2023-12-14T06:42:55;101181.31;;;6.96;100.00
72285;BME280;60220;53.552;10.092;2023-12-14T06:45:21;101201.19;;;6.85;100.00
72285;BME280;60220;53.552;10.092;2023-12-14T06:47:50;101207.50;;;7.07;100.00
72285;BME280;60220;53.552;10.092;2023-12-14T06:50:17;101209.28;;;7.15;100.00
72285;BME280;60220;53.552;10.092;2023-12-14T06:52:43;101215.84;;;6.71;100.00
72285;BME280;60220;53.552;10.092;2023-12-14T06:55:10;101217.81;;;6.98;100.00
72285;BME280;60220;53.552;10.092;2023-12-14T06:57:37;101212.66;;;7.04;100.00
72285;BME280;60220;53.552;10.092;2023-12-14T07:00:08;101203.94;;;7.00;100.00
72285;BME280;60220;53.552;10.092;2023-12-14T07:02:35;101202.34;;;7.16;100.00
72285;BME280;60220;53.552;10.092;2023-12-14T07:05:02;101221.28;;;6.92;100.00
72285;BME280;60220;53.552;10.092;2023-12-14T07:07:29;101212.88;;;6.39;100.00
72285;BME280;60220;53.552;10.092;2023-12-14T07:09:58;101213.75;;;6.36;100.00
72285;BME280;60220;53.552;10.092;2023-12-14T07:12:24;101214.69;;;5.80;100.00
72285;BME280;60220;53.552;10.092;2023-12-14T07:14:51;101223.59;;;5.94;100.00
72285;BME280;60220;53.552;10.092;2023-12-14T07:17:19;101222.41;;;6.35;100.00
72285;BME280;60220;53.552;10.092;2023-12-14T07:19:45;101221.22;;;6.11;100.00
72285;BME280;60220;53.552;10.092;2023-12-14T07:22:12;101230.88;;;6.19;100.00
72285;BME280;60220;53.552;10.092;2023-12-14T07:24:39;101237.84;;;6.17;100.00
72285;BME280;60220;53.552;10.092;2023-12-14T07:27:06;101245.25;;;6.58;100.00
72285;BME280;60220;53.552;10.092;2023-12-14T07:29:32;101255.03;;;6.75;100.00
72285;BME280;60220;53.552;10.092;2023-12-14T07:31:59;101263.19;;;7.07;100.00
72285;BME280;60220;53.552;10.092;2023-12-14T07:34:27;101276.13;;;6.97;100.00
72285;BME280;60220;53.552;10.092;2023-12-14T07:36:54;101281.44;;;7.09;100.00
72285;BME280;60220;53.552;10.092;2023-12-14T07:39:23;101285.72;;;6.99;100.00
72285;BME280;60220;53.552;10.092;2023-12-14T07:41:50;101294.69;;;7.28;100.00
72285;BME280;60220;53.552;10.092;2023-12-14T07:44:16;101295.00;;;6.74;100.00
72285;BME280;60220;53.552;10.092;2023-12-14T07:46:43;101295.44;;;6.37;100.00
72285;BME280;60220;53.552;10.092;2023-12-14T07:49:10;101301.94;;;6.71;100.00
72285;BME280;60220;53.552;10.092;2023-12-14T07:51:40;101305.94;;;6.44;100.00
72285;BME280;60220;53.552;10.092;2023-12-14T07:54:07;101306.72;;;7.11;100.00
72285;BME280;60220;53.552;10.092;2023-12-14T07:56:33;101316.25;;;7.09;100.00
72285;BME280;60220;53.552;10.092;2023-12-14T07:59:00;101309.50;;;6.49;100.00
72285;BME280;60220;53.552;10.092;2023-12-14T08:01:27;101321.97;;;6.72;100.00
72285;BME280;60220;53.552;10.092;2023-12-14T08:03:53;101328.41;;;6.33;100.00
72285;BME280;60220;53.552;10.092;2023-12-14T08:06:22;101331.88;;;6.32;100.00
72285;BME280;60220;53.552;10.092;2023-12-14T08:08:50;101332.97;;;6.49;100.00
72285;BME280;60220;53.552;10.092;2023-12-14T08:11:17;101336.97;;;6.91;100.00
72285;BME280;60220;53.552;10.092;2023-12-14T08:13:44;101337.53;;;6.66;100.00
72285;BME280;60220;53.552;10.092;2023-12-14T08:16:10;101344.34;;;6.58;100.00
72285;BME280;60220;53.552;10.092;2023-12-14T08:18:39;101348.03;;;6.72;100.00
72285;BME280;60220;53.552;10.092;2023-12-14T08:21:07;101344.59;;;6.76;100.00
72285;BME280;60220;53.552;10.092;2023-12-14T08:23:34;101341.88;;;6.65;100.00
72285;BME280;60220;53.552;10.092;2023-12-14T08:26:03;101356.31;;;6.40;100.00
72285;BME280;60220;53.552;10.092;2023-12-14T08:28:29;101355.16;;;6.85;100.00
72285;BME280;60220;53.552;10.092;2023-12-14T08:30:58;101351.13;;;6.43;100.00
72285;BME280;60220;53.552;10.092;2023-12-14T08:33:27;101364.28;;;6.53;100.00
72285;BME280;60220;53.552;10.092;2023-12-14T08:35:55;101369.66;;;6.03;100.00
72285;BME280;60220;53.552;10.092;2023-12-14T08:38:22;101374.13;;;6.72;100.00
72285;BME280;60220;53.552;10.092;2023-12-14T08:40:48;101373.03;;;6.55;100.00
72285;BME280;60220;53.552;10.092;2023-12-14T08:43:16;101375.47;;;6.42;100.00
72285;BME280;60220;53.552;10.092;2023-12-14T08:45:43;101376.97;;;6.25;100.00
72285;BME280;60220;53.552;10.092;2023-12-14T08:48:10;101381.91;;;6.09;100.00
72285;BME280;60220;53.552;10.092;2023-12-14T08:50:36;101382.44;;;6.43;100.00
72285;BME280;60220;53.552;10.092;2023-12-14T08:53:03;101387.00;;;6.60;100.00
72285;BME280;60220;53.552;10.092;2023-12-14T08:55:31;101397.09;;;7.00;100.00
72285;BME280;60220;53.552;10.092;2023-12-14T08:58:00;101397.56;;;6.69;100.00
72285;BME280;60220;53.552;10.092;2023-12-14T09:00:28;101400.84;;;6.54;100.00
72285;BME280;60220;53.552;10.092;2023-12-14T09:02:55;101402.56;;;6.52;100.00
72285;BME280;60220;53.552;10.092;2023-12-14T09:05:24;101408.91;;;6.71;100.00
72285;BME280;60220;53.552;10.092;2023-12-14T09:07:53;101411.69;;;6.84;100.00
72285;BME280;60220;53.552;10.092;2023-12-14T09:10:21;101414.16;;;6.72;100.00
72285;BME280;60220;53.552;10.092;2023-12-14T09:12:50;101421.97;;;6.72;100.00
72285;BME280;60220;53.552;10.092;2023-12-14T09:15:19;101420.28;;;6.76;100.00
72285;BME280;60220;53.552;10.092;2023-12-14T09:17:47;101429.09;;;6.25;100.00
72285;BME280;60220;53.552;10.092;2023-12-14T09:20:14;101424.84;;;6.92;100.00
72285;BME280;60220;53.552;10.092;2023-12-14T09:22:43;101427.53;;;7.00;100.00
72285;BME280;60220;53.552;10.092;2023-12-14T09:25:12;101435.09;;;6.80;100.00
72285;BME280;60220;53.552;10.092;2023-12-14T09:27:39;101444.38;;;7.27;100.00
72285;BME280;60220;53.552;10.092;2023-12-14T09:30:06;101443.47;;;7.22;100.00
72285;BME280;60220;53.552;10.092;2023-12-14T09:32:33;101448.91;;;6.71;100.00
72285;BME280;60220;53.552;10.092;2023-12-14T09:35:01;101447.81;;;7.23;100.00
72285;BME280;60220;53.552;10.092;2023-12-14T09:37:28;101448.47;;;7.04;100.00
72285;BME280;60220;53.552;10.092;2023-12-14T09:39:57;101463.19;;;6.99;100.00
72285;BME280;60220;53.552;10.092;2023-12-14T09:42:24;101454.97;;;7.37;100.00
72285;BME280;60220;53.552;10.092;2023-12-14T09:44:51;101453.69;;;7.04;100.00
72285;BME280;60220;53.552;10.092;2023-12-14T09:47:19;101462.19;;;6.89;100.00
72285;BME280;60220;53.552;10.092;2023-12-14T09:49:47;101451.47;;;6.67;100.00
72285;BME280;60220;53.552;10.092;2023-12-14T09:52:15;101460.28;;;6.76;100.00
72285;BME280;60220;53.552;10.092;2023-12-14T09:54:42;101449.84;;;6.78;100.00
72285;BME280;60220;53.552;10.092;2023-12-14T09:57:09;101454.31;;;6.85;100.00
72285;BME280;60220;53.552;10.092;2023-12-14T09:59:37;101457.81;;;6.88;100.00
72285;BME280;60220;53.552;10.092;2023-12-14T10:02:13;101456.00;;;6.83;100.00
72285;BME280;60220;53.552;10.092;2023-12-14T10:04:42;101461.06;;;6.14;100.00
72285;BME280;60220;53.552;10.092;2023-12-14T10:07:11;101461.59;;;7.10;100.00
72285;BME280;60220;53.552;10.092;2023-12-14T10:09:39;101465.16;;;7.15;100.00
72285;BME280;60220;53.552;10.092;2023-12-14T10:12:08;101469.47;;;7.13;100.00
72285;BME280;60220;53.552;10.092;2023-12-14T10:14:37;101466.22;;;6.68;100.00
72285;BME280;60220;53.552;10.092;2023-12-14T10:17:16;101474.16;;;6.74;100.00
72285;BME280;60220;53.552;10.092;2023-12-14T10:19:44;101480.78;;;6.51;100.00
72285;BME280;60220;53.552;10.092;2023-12-14T10:22:13;101487.38;;;6.86;100.00
72285;BME280;60220;53.552;10.092;2023-12-14T10:24:43;101492.41;;;6.74;100.00
72285;BME280;60220;53.552;10.092;2023-12-14T10:27:11;101494.97;;;6.15;100.00
72285;BME280;60220;53.552;10.092;2023-12-14T10:29:38;101497.97;;;6.39;100.00
72285;BME280;60220;53.552;10.092;2023-12-14T10:32:06;101504.41;;;6.63;100.00
72285;BME280;60220;53.552;10.092;2023-12-14T10:34:34;101508.63;;;7.13;100.00
72285;BME280;60220;53.552;10.092;2023-12-14T10:37:01;101508.38;;;6.95;100.00
72285;BME280;60220;53.552;10.092;2023-12-14T10:39:31;101509.94;;;6.82;100.00
72285;BME280;60220;53.552;10.092;2023-12-14T10:42:02;101523.03;;;6.85;100.00
72285;BME280;60220;53.552;10.092;2023-12-14T10:44:36;101523.59;;;6.65;100.00
72285;BME280;60220;53.552;10.092;2023-12-14T10:47:03;101522.53;;;6.52;100.00
72285;BME280;60220;53.552;10.092;2023-12-14T10:49:30;101526.47;;;6.27;100.00
72285;BME280;60220;53.552;10.092;2023-12-14T10:51:59;101529.81;;;6.20;100.00
72285;BME280;60220;53.552;10.092;2023-12-14T10:54:31;101535.75;;;5.67;100.00
72285;BME280;60220;53.552;10.092;2023-12-14T10:56:58;101543.63;;;6.66;100.00
72285;BME280;60220;53.552;10.092;2023-12-14T10:59:30;101539.44;;;6.78;100.00
72285;BME280;60220;53.552;10.092;2023-12-14T11:01:57;101548.22;;;7.45;100.00
72285;BME280;60220;53.552;10.092;2023-12-14T11:04:26;101554.41;;;7.52;100.00
72285;BME280;60220;53.552;10.092;2023-12-14T11:06:53;101554.25;;;7.40;100.00
72285;BME280;60220;53.552;10.092;2023-12-14T11:09:22;101560.56;;;6.92;100.00
72285;BME280;60220;53.552;10.092;2023-12-14T11:11:55;101559.44;;;7.37;100.00
72285;BME280;60220;53.552;10.092;2023-12-14T11:14:24;101558.41;;;7.25;100.00
72285;BME280;60220;53.552;10.092;2023-12-14T11:16:56;101567.84;;;7.17;100.00
72285;BME280;60220;53.552;10.092;2023-12-14T11:19:27;101572.75;;;7.58;100.00
72285;BME280;60220;53.552;10.092;2023-12-14T11:22:11;101575.03;;;7.33;100.00
72285;BME280;60220;53.552;10.092;2023-12-14T11:24:55;101572.50;;;7.38;100.00
72285;BME280;60220;53.552;10.092;2023-12-14T11:27:29;101572.69;;;7.52;100.00
72285;BME280;60220;53.552;10.092;2023-12-14T11:29:58;101584.59;;;7.33;100.00
72285;BME280;60220;53.552;10.092;2023-12-14T11:32:26;101589.09;;;6.83;100.00
72285;BME280;60220;53.552;10.092;2023-12-14T11:34:55;101579.97;;;6.07;100.00
72285;BME280;60220;53.552;10.092;2023-12-14T11:37:22;101586.88;;;7.07;100.00
72285;BME280;60220;53.552;10.092;2023-12-14T11:39:51;101591.09;;;6.99;100.00
72285;BME280;60220;53.552;10.092;2023-12-14T11:42:21;101595.84;;;7.27;100.00
72285;BME280;60220;53.552;10.092;2023-12-14T11:44:47;101597.50;;;7.22;100.00
72285;BME280;60220;53.552;10.092;2023-12-14T11:47:14;101604.13;;;6.99;100.00
72285;BME280;60220;53.552;10.092;2023-12-14T11:49:42;101603.00;;;7.41;100.00
72285;BME280;60220;53.552;10.092;2023-12-14T11:52:11;101600.50;;;7.50;100.00
72285;BME280;60220;53.552;10.092;2023-12-14T11:54:38;101604.59;;;7.29;100.00
72285;BME280;60220;53.552;10.092;2023-12-14T11:57:04;101611.81;;;7.49;100.00
72285;BME280;60220;53.552;10.092;2023-12-14T11:59:34;101605.00;;;7.60;100.00
72285;BME280;60220;53.552;10.092;2023-12-14T12:02:01;101604.03;;;7.53;100.00
72285;BME280;60220;53.552;10.092;2023-12-14T12:04:30;101601.53;;;7.61;100.00
72285;BME280;60220;53.552;10.092;2023-12-14T12:07:03;101609.13;;;6.84;100.00
72285;BME280;60220;53.552;10.092;2023-12-14T12:09:37;101613.34;;;7.31;100.00
72285;BME280;60220;53.552;10.092;2023-12-14T12:12:08;101612.72;;;7.51;100.00
72285;BME280;60220;53.552;10.092;2023-12-14T12:14:35;101606.47;;;7.40;100.00
72285;BME280;60220;53.552;10.092;2023-12-14T12:17:04;101606.78;;;7.61;100.00
72285;BME280;60220;53.552;10.092;2023-12-14T12:19:32;101606.47;;;7.40;100.00
72285;BME280;60220;53.552;10.092;2023-12-14T12:22:01;101613.72;;;7.00;100.00
72285;BME280;60220;53.552;10.092;2023-12-14T12:24:28;101612.34;;;7.23;100.00
72285;BME280;60220;53.552;10.092;2023-12-14T12:26:55;101615.03;;;7.29;100.00
72285;BME280;60220;53.552;10.092;2023-12-14T12:29:22;101617.25;;;6.49;100.00
72285;BME280;60220;53.552;10.092;2023-12-14T12:31:48;101626.25;;;7.22;100.00
72285;BME280;60220;53.552;10.092;2023-12-14T12:34:17;101621.47;;;6.94;100.00
72285;BME280;60220;53.552;10.092;2023-12-14T12:36:44;101622.22;;;7.47;100.00
72285;BME280;60220;53.552;10.092;2023-12-14T12:39:12;101625.72;;;7.48;100.00
72285;BME280;60220;53.552;10.092;2023-12-14T12:41:39;101625.22;;;7.11;100.00
72285;BME280;60220;53.552;10.092;2023-12-14T12:44:06;101629.78;;;7.27;100.00